sensor_id;sensor_type;location;lat;lon;timestamp;P1;durP1;ratioP1;P2;durP2;ratioP2
65853;SDS011;52627;48.838;2.402;2024-03-07T00:00:12;14.10;;;8.60;;
65853;SDS011;52627;48.838;2.402;2024-03-07T00:02:48;13.80;;;8.80;;
65853;SDS011;52627;48.838;2.402;2024-03-07T00:05:21;12.80;;;7.50;;
65853;SDS011;52627;48.838;2.402;2024-03-07T00:07:53;12.40;;;8.40;;
65853;SDS011;52627;48.838;2.402;2024-03-07T00:10:21;12.30;;;7.60;;
65853;SDS011;52627;48.838;2.402;2024-03-07T00:12:49;11.80;;;8.50;;
65853;SDS011;52627;48.838;2.402;2024-03-07T00:15:16;11.40;;;8.00;;
65853;SDS011;52627;48.838;2.402;2024-03-07T00:17:45;12.60;;;8.10;;
65853;SDS011;52627;48.838;2.402;2024-03-07T00:20:13;13.10;;;7.10;;
65853;SDS011;52627;48.838;2.402;2024-03-07T00:22:47;10.90;;;7.30;;
65853;SDS011;52627;48.838;2.402;2024-03-07T00:25:14;11.90;;;8.00;;
65853;SDS011;52627;48.838;2.402;2024-03-07T00:27:47;11.90;;;8.00;;
65853;SDS011;52627;48.838;2.402;2024-03-07T00:30:14;11.70;;;8.30;;
65853;SDS011;52627;48.838;2.402;2024-03-07T00:32:46;11.80;;;8.30;;
65853;SDS011;52627;48.838;2.402;2024-03-07T00:35:15;11.60;;;7.90;;
65853;SDS011;52627;48.838;2.402;2024-03-07T00:37:43;12.10;;;7.80;;
65853;SDS011;52627;48.838;2.402;2024-03-07T00:40:11;14.20;;;7.40;;
65853;SDS011;52627;48.838;2.402;2024-03-07T00:42:39;11.20;;;7.70;;
65853;SDS011;52627;48.838;2.402;2024-03-07T00:45:07;11.90;;;8.20;;
65853;SDS011;52627;48.838;2.402;2024-03-07T00:47:34;12.70;;;8.40;;
65853;SDS011;52627;48.838;2.402;2024-03-07T00:50:02;12.70;;;8.50;;
65853;SDS011;52627;48.838;2.402;2024-03-07T00:52:30;13.80;;;8.30;;
65853;SDS011;52627;48.838;2.402;2024-03-07T00:54:57;15.10;;;9.50;;
65853;SDS011;52627;48.838;2.402;2024-03-07T00:57:25;12.00;;;8.30;;
65853;SDS011;52627;48.838;2.402;2024-03-07T00:59:52;13.80;;;8.70;;
65853;SDS011;52627;48.838;2.402;2024-03-07T01:02:20;14.60;;;8.90;;
65853;SDS011;52627;48.838;2.402;2024-03-07T01:04:47;11.70;;;9.10;;
65853;SDS011;52627;48.838;2.402;2024-03-07T01:07:15;12.20;;;9.10;;
65853;SDS011;52627;48.838;2.402;2024-03-07T01:09:43;13.50;;;8.80;;
65853;SDS011;52627;48.838;2.402;2024-03-07T01:12:10;14.20;;;9.10;;
65853;SDS011;52627;48.838;2.402;2024-03-07T01:14:38;14.20;;;9.10;;
65853;SDS011;52627;48.838;2.402;2024-03-07T01:17:06;14.20;;;9.50;;
65853;SDS011;52627;48.838;2.402;2024-03-07T01:19:35;12.60;;;9.00;;
65853;SDS011;52627;48.838;2.402;2024-03-07T01:22:03;12.70;;;8.70;;
65853;SDS011;52627;48.838;2.402;2024-03-07T01:24:30;15.30;;;10.00;;
65853;SDS011;52627;48.838;2.402;2024-03-07T01:26:58;16.10;;;9.20;;
65853;SDS011;52627;48.838;2.402;2024-03-07T01:29:27;13.70;;;9.00;;
65853;SDS011;52627;48.838;2.402;2024-03-07T01:31:55;13.20;;;9.00;;
65853;SDS011;52627;48.838;2.402;2024-03-07T01:34:22;13.60;;;8.70;;
65853;SDS011;52627;48.838;2.402;2024-03-07T01:36:50;13.00;;;9.00;;
65853;SDS011;52627;48.838;2.402;2024-03-07T01:39:17;13.90;;;9.30;;
65853;SDS011;52627;48.838;2.402;2024-03-07T01:41:45;14.60;;;9.50;;
65853;SDS011;52627;48.838;2.402;2024-03-07T01:44:12;12.90;;;8.90;;
65853;SDS011;52627;48.838;2.402;2024-03-07T01:46:40;14.30;;;8.70;;
65853;SDS011;52627;48.838;2.402;2024-03-07T01:49:12;13.00;;;8.90;;
65853;SDS011;52627;48.838;2.402;2024-03-07T01:51:39;13.40;;;9.00;;
65853;SDS011;52627;48.838;2.402;2024-03-07T01:54:08;12.20;;;8.50;;
65853;SDS011;52627;48.838;2.402;2024-03-07T01:56:37;15.00;;;8.60;;
65853;SDS011;52627;48.838;2.402;2024-03-07T01:59:06;14.00;;;8.40;;
65853;SDS011;52627;48.838;2.402;2024-03-07T02:01:35;13.50;;;9.00;;
65853;SDS011;52627;48.838;2.402;2024-03-07T02:04:04;13.10;;;8.80;;
65853;SDS011;52627;48.838;2.402;2024-03-07T02:06:33;13.60;;;8.90;;
65853;SDS011;52627;48.838;2.402;2024-03-07T02:09:01;13.40;;;8.60;;
65853;SDS011;52627;48.838;2.402;2024-03-07T02:11:30;14.40;;;8.50;;
65853;SDS011;52627;48.838;2.402;2024-03-07T02:13:57;12.80;;;7.60;;
65853;SDS011;52627;48.838;2.402;2024-03-07T02:16:25;11.80;;;8.50;;
65853;SDS011;52627;48.838;2.402;2024-03-07T02:18:53;13.30;;;8.00;;
65853;SDS011;52627;48.838;2.402;2024-03-07T02:21:22;11.80;;;8.00;;
65853;SDS011;52627;48.838;2.402;2024-03-07T02:23:50;11.70;;;7.60;;
65853;SDS011;52627;48.838;2.402;2024-03-07T02:26:18;13.70;;;7.90;;
65853;SDS011;52627;48.838;2.402;2024-03-07T02:28:46;12.30;;;8.20;;
65853;SDS011;52627;48.838;2.402;2024-03-07T02:31:13;11.60;;;7.50;;
65853;SDS011;52627;48.838;2.402;2024-03-07T02:33:41;12.50;;;7.50;;
65853;SDS011;52627;48.838;2.402;2024-03-07T02:36:09;12.80;;;8.20;;
65853;SDS011;52627;48.838;2.402;2024-03-07T02:38:36;12.00;;;8.00;;
65853;SDS011;52627;48.838;2.402;2024-03-07T02:41:04;11.00;;;8.00;;
65853;SDS011;52627;48.838;2.402;2024-03-07T02:43:31;14.10;;;8.10;;
65853;SDS011;52627;48.838;2.402;2024-03-07T02:45:59;12.90;;;7.70;;
65853;SDS011;52627;48.838;2.402;2024-03-07T02:48:27;13.30;;;8.30;;
65853;SDS011;52627;48.838;2.402;2024-03-07T02:50:56;11.00;;;7.30;;
65853;SDS011;52627;48.838;2.402;2024-03-07T02:53:23;12.00;;;7.90;;
65853;SDS011;52627;48.838;2.402;2024-03-07T02:55:51;12.70;;;8.00;;
65853;SDS011;52627;48.838;2.402;2024-03-07T02:58:18;14.20;;;7.90;;
65853;SDS011;52627;48.838;2.402;2024-03-07T03:00:46;15.60;;;8.10;;
65853;SDS011;52627;48.838;2.402;2024-03-07T03:03:13;13.00;;;8.00;;
65853;SDS011;52627;48.838;2.402;2024-03-07T03:05:40;13.50;;;8.10;;
65853;SDS011;52627;48.838;2.402;2024-03-07T03:08:08;12.50;;;8.00;;
65853;SDS011;52627;48.838;2.402;2024-03-07T03:10:37;14.00;;;8.30;;
65853;SDS011;52627;48.838;2.402;2024-03-07T03:13:05;11.90;;;8.00;;
65853;SDS011;52627;48.838;2.402;2024-03-07T03:15:34;12.80;;;8.10;;
65853;SDS011;52627;48.838;2.402;2024-03-07T03:18:02;13.30;;;8.10;;
65853;SDS011;52627;48.838;2.402;2024-03-07T03:20:31;12.80;;;7.80;;
65853;SDS011;52627;48.838;2.402;2024-03-07T03:23:03;11.40;;;8.00;;
65853;SDS011;52627;48.838;2.402;2024-03-07T03:25:46;11.70;;;7.70;;
65853;SDS011;52627;48.838;2.402;2024-03-07T03:28:18;12.50;;;7.50;;
65853;SDS011;52627;48.838;2.402;2024-03-07T03:30:48;11.00;;;7.40;;
65853;SDS011;52627;48.838;2.402;2024-03-07T03:33:17;11.20;;;7.10;;
65853;SDS011;52627;48.838;2.402;2024-03-07T03:35:45;11.20;;;7.90;;
65853;SDS011;52627;48.838;2.402;2024-03-07T03:38:13;13.40;;;7.80;;
65853;SDS011;52627;48.838;2.402;2024-03-07T03:40:40;11.70;;;7.90;;
65853;SDS011;52627;48.838;2.402;2024-03-07T03:43:08;11.90;;;7.30;;
65853;SDS011;52627;48.838;2.402;2024-03-07T03:45:35;15.40;;;8.00;;
65853;SDS011;52627;48.838;2.402;2024-03-07T03:48:04;12.20;;;8.00;;
65853;SDS011;52627;48.838;2.402;2024-03-07T03:50:32;12.10;;;7.20;;
65853;SDS011;52627;48.838;2.402;2024-03-07T03:53:00;11.10;;;7.40;;
65853;SDS011;52627;48.838;2.402;2024-03-07T03:55:29;13.70;;;8.10;;
65853;SDS011;52627;48.838;2.402;2024-03-07T03:57:57;12.50;;;7.60;;
65853;SDS011;52627;48.838;2.402;2024-03-07T04:00:24;11.10;;;7.70;;
65853;SDS011;52627;48.838;2.402;2024-03-07T04:02:52;13.90;;;7.80;;
65853;SDS011;52627;48.838;2.402;2024-03-07T04:05:20;14.10;;;8.20;;
65853;SDS011;52627;48.838;2.402;2024-03-07T04:07:49;12.80;;;7.50;;
65853;SDS011;52627;48.838;2.402;2024-03-07T04:10:17;11.10;;;7.50;;
65853;SDS011;52627;48.838;2.402;2024-03-07T04:12:45;13.40;;;8.10;;
65853;SDS011;52627;48.838;2.402;2024-03-07T04:15:14;11.90;;;8.40;;
65853;SDS011;52627;48.838;2.402;2024-03-07T04:17:46;11.20;;;7.30;;
65853;SDS011;52627;48.838;2.402;2024-03-07T04:20:16;14.90;;;8.00;;
65853;SDS011;52627;48.838;2.402;2024-03-07T04:22:46;11.70;;;8.00;;
65853;SDS011;52627;48.838;2.402;2024-03-07T04:25:14;12.00;;;7.60;;
65853;SDS011;52627;48.838;2.402;2024-03-07T04:27:42;11.90;;;8.30;;
65853;SDS011;52627;48.838;2.402;2024-03-07T04:30:10;12.60;;;8.00;;
65853;SDS011;52627;48.838;2.402;2024-03-07T04:32:38;11.80;;;7.40;;
65853;SDS011;52627;48.838;2.402;2024-03-07T04:35:07;11.90;;;7.90;;
65853;SDS011;52627;48.838;2.402;2024-03-07T04:37:38;12.60;;;7.50;;
65853;SDS011;52627;48.838;2.402;2024-03-07T04:40:08;11.80;;;7.90;;
65853;SDS011;52627;48.838;2.402;2024-03-07T04:42:47;11.90;;;7.70;;
65853;SDS011;52627;48.838;2.402;2024-03-07T04:45:18;14.70;;;7.40;;
65853;SDS011;52627;48.838;2.402;2024-03-07T04:47:46;11.40;;;7.20;;
65853;SDS011;52627;48.838;2.402;2024-03-07T04:50:15;12.50;;;7.50;;
65853;SDS011;52627;48.838;2.402;2024-03-07T04:52:47;11.00;;;6.80;;
65853;SDS011;52627;48.838;2.402;2024-03-07T04:55:17;11.80;;;7.20;;
65853;SDS011;52627;48.838;2.402;2024-03-07T04:57:45;14.90;;;7.20;;
65853;SDS011;52627;48.838;2.402;2024-03-07T05:00:14;11.70;;;6.30;;
65853;SDS011;52627;48.838;2.402;2024-03-07T05:05:14;10.20;;;6.20;;
65853;SDS011;52627;48.838;2.402;2024-03-07T05:07:46;10.70;;;6.80;;
65853;SDS011;52627;48.838;2.402;2024-03-07T05:10:13;10.70;;;6.50;;
65853;SDS011;52627;48.838;2.402;2024-03-07T05:12:41;10.80;;;5.90;;
65853;SDS011;52627;48.838;2.402;2024-03-07T05:15:08;11.00;;;6.40;;
65853;SDS011;52627;48.838;2.402;2024-03-07T05:17:38;9.50;;;6.20;;
65853;SDS011;52627;48.838;2.402;2024-03-07T05:20:08;10.00;;;6.40;;
65853;SDS011;52627;48.838;2.402;2024-03-07T05:22:42;11.00;;;6.30;;
65853;SDS011;52627;48.838;2.402;2024-03-07T05:25:19;11.10;;;6.60;;
65853;SDS011;52627;48.838;2.402;2024-03-07T05:27:47;9.20;;;5.40;;
65853;SDS011;52627;48.838;2.402;2024-03-07T05:30:19;8.20;;;5.80;;
65853;SDS011;52627;48.838;2.402;2024-03-07T05:32:49;18.90;;;7.40;;
65853;SDS011;52627;48.838;2.402;2024-03-07T05:35:17;10.10;;;6.20;;
65853;SDS011;52627;48.838;2.402;2024-03-07T05:40:18;10.70;;;5.90;;
65853;SDS011;52627;48.838;2.402;2024-03-07T05:42:46;10.90;;;6.30;;
65853;SDS011;52627;48.838;2.402;2024-03-07T05:45:13;11.10;;;6.20;;
65853;SDS011;52627;48.838;2.402;2024-03-07T05:47:42;11.40;;;6.40;;
65853;SDS011;52627;48.838;2.402;2024-03-07T05:50:09;10.40;;;6.50;;
65853;SDS011;52627;48.838;2.402;2024-03-07T05:52:38;12.10;;;7.10;;
65853;SDS011;52627;48.838;2.402;2024-03-07T05:55:06;9.10;;;5.90;;
65853;SDS011;52627;48.838;2.402;2024-03-07T05:57:34;10.30;;;6.50;;
65853;SDS011;52627;48.838;2.402;2024-03-07T06:00:01;10.80;;;6.50;;
65853;SDS011;52627;48.838;2.402;2024-03-07T06:02:29;12.00;;;6.30;;
65853;SDS011;52627;48.838;2.402;2024-03-07T06:04:57;15.20;;;6.70;;
65853;SDS011;52627;48.838;2.402;2024-03-07T06:07:24;10.80;;;7.00;;
65853;SDS011;52627;48.838;2.402;2024-03-07T06:09:51;10.90;;;6.50;;
65853;SDS011;52627;48.838;2.402;2024-03-07T06:12:19;11.10;;;6.80;;
65853;SDS011;52627;48.838;2.402;2024-03-07T06:14:54;11.50;;;7.00;;
65853;SDS011;52627;48.838;2.402;2024-03-07T06:17:22;10.00;;;6.70;;
65853;SDS011;52627;48.838;2.402;2024-03-07T06:19:50;12.70;;;7.00;;
65853;SDS011;52627;48.838;2.402;2024-03-07T06:22:18;11.30;;;6.70;;
65853;SDS011;52627;48.838;2.402;2024-03-07T06:24:45;11.10;;;6.90;;
65853;SDS011;52627;48.838;2.402;2024-03-07T06:27:13;11.20;;;6.80;;
65853;SDS011;52627;48.838;2.402;2024-03-07T06:32:23;9.60;;;6.00;;
65853;SDS011;52627;48.838;2.402;2024-03-07T06:34:51;11.70;;;6.60;;
65853;SDS011;52627;48.838;2.402;2024-03-07T06:37:19;9.70;;;6.40;;
65853;SDS011;52627;48.838;2.402;2024-03-07T06:39:47;12.00;;;6.40;;
65853;SDS011;52627;48.838;2.402;2024-03-07T06:42:15;10.80;;;6.40;;
65853;SDS011;52627;48.838;2.402;2024-03-07T06:44:43;12.00;;;6.40;;
65853;SDS011;52627;48.838;2.402;2024-03-07T06:47:11;10.30;;;6.60;;
65853;SDS011;52627;48.838;2.402;2024-03-07T06:49:38;13.80;;;6.90;;
65853;SDS011;52627;48.838;2.402;2024-03-07T06:52:07;11.00;;;6.90;;
65853;SDS011;52627;48.838;2.402;2024-03-07T06:54:35;11.40;;;6.60;;
65853;SDS011;52627;48.838;2.402;2024-03-07T06:57:03;12.50;;;7.00;;
65853;SDS011;52627;48.838;2.402;2024-03-07T06:59:31;13.40;;;7.20;;
65853;SDS011;52627;48.838;2.402;2024-03-07T07:01:59;13.30;;;6.40;;
65853;SDS011;52627;48.838;2.402;2024-03-07T07:04:27;11.00;;;6.40;;
65853;SDS011;52627;48.838;2.402;2024-03-07T07:07:06;9.70;;;6.00;;
65853;SDS011;52627;48.838;2.402;2024-03-07T07:09:33;12.10;;;6.50;;
65853;SDS011;52627;48.838;2.402;2024-03-07T07:12:02;10.00;;;6.40;;
65853;SDS011;52627;48.838;2.402;2024-03-07T07:14:30;12.70;;;6.20;;
65853;SDS011;52627;48.838;2.402;2024-03-07T07:16:58;12.90;;;6.50;;
65853;SDS011;52627;48.838;2.402;2024-03-07T07:19:29;13.60;;;7.50;;
65853;SDS011;52627;48.838;2.402;2024-03-07T07:21:57;11.80;;;6.50;;
65853;SDS011;52627;48.838;2.402;2024-03-07T07:24:24;10.30;;;6.10;;
65853;SDS011;52627;48.838;2.402;2024-03-07T07:26:52;10.60;;;6.10;;
65853;SDS011;52627;48.838;2.402;2024-03-07T07:29:20;13.40;;;6.50;;
65853;SDS011;52627;48.838;2.402;2024-03-07T07:31:51;11.00;;;6.60;;
65853;SDS011;52627;48.838;2.402;2024-03-07T07:34:19;12.80;;;6.30;;
65853;SDS011;52627;48.838;2.402;2024-03-07T07:36:46;10.40;;;6.50;;
65853;SDS011;52627;48.838;2.402;2024-03-07T07:39:14;10.30;;;6.30;;
65853;SDS011;52627;48.838;2.402;2024-03-07T07:41:44;12.60;;;5.80;;
65853;SDS011;52627;48.838;2.402;2024-03-07T07:44:12;12.00;;;6.10;;
65853;SDS011;52627;48.838;2.402;2024-03-07T07:46:41;9.70;;;6.60;;
65853;SDS011;52627;48.838;2.402;2024-03-07T07:49:08;12.20;;;6.20;;
65853;SDS011;52627;48.838;2.402;2024-03-07T07:51:36;10.10;;;6.20;;
65853;SDS011;52627;48.838;2.402;2024-03-07T07:54:04;9.70;;;6.30;;
65853;SDS011;52627;48.838;2.402;2024-03-07T07:56:31;10.00;;;6.20;;
65853;SDS011;52627;48.838;2.402;2024-03-07T07:58:59;10.10;;;6.40;;
65853;SDS011;52627;48.838;2.402;2024-03-07T08:01:27;10.90;;;6.00;;
65853;SDS011;52627;48.838;2.402;2024-03-07T08:03:55;11.10;;;5.80;;
65853;SDS011;52627;48.838;2.402;2024-03-07T08:06:22;12.40;;;6.30;;
65853;SDS011;52627;48.838;2.402;2024-03-07T08:08:51;14.20;;;6.40;;
65853;SDS011;52627;48.838;2.402;2024-03-07T08:11:19;10.30;;;5.50;;
65853;SDS011;52627;48.838;2.402;2024-03-07T08:13:46;11.20;;;6.50;;
65853;SDS011;52627;48.838;2.402;2024-03-07T08:16:17;11.20;;;5.80;;
65853;SDS011;52627;48.838;2.402;2024-03-07T08:18:45;8.60;;;5.50;;
65853;SDS011;52627;48.838;2.402;2024-03-07T08:21:13;10.60;;;6.60;;
65853;SDS011;52627;48.838;2.402;2024-03-07T08:23:40;9.90;;;7.00;;
65853;SDS011;52627;48.838;2.402;2024-03-07T08:26:08;11.80;;;6.20;;
65853;SDS011;52627;48.838;2.402;2024-03-07T08:28:36;13.00;;;6.50;;
65853;SDS011;52627;48.838;2.402;2024-03-07T08:31:04;9.40;;;5.70;;
65853;SDS011;52627;48.838;2.402;2024-03-07T08:33:32;10.00;;;5.60;;
65853;SDS011;52627;48.838;2.402;2024-03-07T08:36:00;10.40;;;5.80;;
65853;SDS011;52627;48.838;2.402;2024-03-07T08:38:29;10.60;;;6.20;;
65853;SDS011;52627;48.838;2.402;2024-03-07T08:40:56;9.10;;;5.00;;
65853;SDS011;52627;48.838;2.402;2024-03-07T08:43:24;11.40;;;6.40;;
65853;SDS011;52627;48.838;2.402;2024-03-07T08:45:51;9.70;;;5.40;;
65853;SDS011;52627;48.838;2.402;2024-03-07T08:48:19;9.70;;;5.30;;
65853;SDS011;52627;48.838;2.402;2024-03-07T08:50:47;10.10;;;5.60;;
65853;SDS011;52627;48.838;2.402;2024-03-07T08:53:15;7.90;;;5.30;;
65853;SDS011;52627;48.838;2.402;2024-03-07T08:55:43;9.40;;;5.40;;
65853;SDS011;52627;48.838;2.402;2024-03-07T08:58:10;10.80;;;5.30;;
65853;SDS011;52627;48.838;2.402;2024-03-07T09:00:38;9.60;;;5.90;;
65853;SDS011;52627;48.838;2.402;2024-03-07T09:03:06;8.70;;;5.10;;
65853;SDS011;52627;48.838;2.402;2024-03-07T09:05:39;7.70;;;5.00;;
65853;SDS011;52627;48.838;2.402;2024-03-07T09:08:08;9.40;;;4.60;;
65853;SDS011;52627;48.838;2.402;2024-03-07T09:10:35;9.70;;;5.00;;
65853;SDS011;52627;48.838;2.402;2024-03-07T09:13:03;9.10;;;4.00;;
65853;SDS011;52627;48.838;2.402;2024-03-07T09:15:33;6.60;;;4.50;;
65853;SDS011;52627;48.838;2.402;2024-03-07T09:18:01;7.20;;;4.70;;
65853;SDS011;52627;48.838;2.402;2024-03-07T09:20:31;9.20;;;4.80;;
65853;SDS011;52627;48.838;2.402;2024-03-07T09:22:59;8.50;;;4.90;;
65853;SDS011;52627;48.838;2.402;2024-03-07T09:25:27;9.20;;;5.00;;
65853;SDS011;52627;48.838;2.402;2024-03-07T09:27:55;8.50;;;5.10;;
65853;SDS011;52627;48.838;2.402;2024-03-07T09:30:23;13.00;;;5.80;;
65853;SDS011;52627;48.838;2.402;2024-03-07T09:32:54;9.30;;;5.50;;
65853;SDS011;52627;48.838;2.402;2024-03-07T09:35:23;9.70;;;5.20;;
65853;SDS011;52627;48.838;2.402;2024-03-07T09:37:51;9.40;;;5.60;;
65853;SDS011;52627;48.838;2.402;2024-03-07T09:40:21;8.30;;;5.50;;
65853;SDS011;52627;48.838;2.402;2024-03-07T09:42:52;7.60;;;5.40;;
65853;SDS011;52627;48.838;2.402;2024-03-07T09:45:23;7.70;;;5.40;;
65853;SDS011;52627;48.838;2.402;2024-03-07T09:47:57;8.90;;;5.60;;
65853;SDS011;52627;48.838;2.402;2024-03-07T09:50:26;10.80;;;6.30;;
65853;SDS011;52627;48.838;2.402;2024-03-07T09:55:25;8.50;;;6.10;;
65853;SDS011;52627;48.838;2.402;2024-03-07T09:57:55;10.80;;;6.10;;
65853;SDS011;52627;48.838;2.402;2024-03-07T10:00:27;8.40;;;5.70;;
65853;SDS011;52627;48.838;2.402;2024-03-07T10:03:03;10.50;;;6.00;;
65853;SDS011;52627;48.838;2.402;2024-03-07T10:05:34;9.10;;;6.10;;
65853;SDS011;52627;48.838;2.402;2024-03-07T10:08:02;9.20;;;6.00;;
65853;SDS011;52627;48.838;2.402;2024-03-07T10:10:30;9.40;;;6.30;;
65853;SDS011;52627;48.838;2.402;2024-03-07T10:12:59;10.40;;;6.50;;
65853;SDS011;52627;48.838;2.402;2024-03-07T10:15:29;10.50;;;6.50;;
65853;SDS011;52627;48.838;2.402;2024-03-07T10:17:57;10.30;;;6.50;;
65853;SDS011;52627;48.838;2.402;2024-03-07T10:20:25;9.40;;;6.70;;
65853;SDS011;52627;48.838;2.402;2024-03-07T10:22:54;12.70;;;6.80;;
65853;SDS011;52627;48.838;2.402;2024-03-07T10:25:23;10.90;;;7.50;;
65853;SDS011;52627;48.838;2.402;2024-03-07T10:27:56;11.10;;;6.70;;
65853;SDS011;52627;48.838;2.402;2024-03-07T10:30:28;10.80;;;6.70;;
65853;SDS011;52627;48.838;2.402;2024-03-07T10:32:58;12.10;;;7.00;;
65853;SDS011;52627;48.838;2.402;2024-03-07T10:35:29;11.90;;;7.10;;
65853;SDS011;52627;48.838;2.402;2024-03-07T10:37:59;13.50;;;6.80;;
65853;SDS011;52627;48.838;2.402;2024-03-07T10:40:42;11.20;;;7.70;;
65853;SDS011;52627;48.838;2.402;2024-03-07T10:43:11;12.50;;;7.30;;
65853;SDS011;52627;48.838;2.402;2024-03-07T10:45:44;11.20;;;7.90;;
65853;SDS011;52627;48.838;2.402;2024-03-07T10:48:18;12.80;;;8.20;;
65853;SDS011;52627;48.838;2.402;2024-03-07T10:53:46;12.80;;;8.70;;
65853;SDS011;52627;48.838;2.402;2024-03-07T11:01:45;16.50;;;11.40;;
65853;SDS011;52627;48.838;2.402;2024-03-07T11:04:22;17.10;;;10.80;;
65853;SDS011;52627;48.838;2.402;2024-03-07T11:06:50;15.90;;;10.90;;
65853;SDS011;52627;48.838;2.402;2024-03-07T11:09:17;17.30;;;11.30;;
65853;SDS011;52627;48.838;2.402;2024-03-07T11:11:51;16.50;;;10.80;;
65853;SDS011;52627;48.838;2.402;2024-03-07T11:14:19;19.60;;;12.30;;
65853;SDS011;52627;48.838;2.402;2024-03-07T11:16:48;19.10;;;12.40;;
65853;SDS011;52627;48.838;2.402;2024-03-07T11:19:29;16.80;;;11.20;;
65853;SDS011;52627;48.838;2.402;2024-03-07T11:21:59;21.40;;;12.80;;
65853;SDS011;52627;48.838;2.402;2024-03-07T11:24:30;19.20;;;11.60;;
65853;SDS011;52627;48.838;2.402;2024-03-07T11:27:03;19.00;;;11.50;;
65853;SDS011;52627;48.838;2.402;2024-03-07T11:29:47;18.10;;;10.80;;
65853;SDS011;52627;48.838;2.402;2024-03-07T11:32:17;17.10;;;11.40;;
65853;SDS011;52627;48.838;2.402;2024-03-07T11:34:45;19.40;;;12.10;;
65853;SDS011;52627;48.838;2.402;2024-03-07T11:37:19;20.90;;;12.70;;
65853;SDS011;52627;48.838;2.402;2024-03-07T11:39:51;19.60;;;13.20;;
65853;SDS011;52627;48.838;2.402;2024-03-07T11:42:26;18.30;;;12.30;;
65853;SDS011;52627;48.838;2.402;2024-03-07T11:44:55;20.90;;;13.30;;
65853;SDS011;52627;48.838;2.402;2024-03-07T11:47:25;19.70;;;12.50;;
65853;SDS011;52627;48.838;2.402;2024-03-07T11:49:57;17.80;;;11.90;;
65853;SDS011;52627;48.838;2.402;2024-03-07T11:52:27;23.50;;;12.60;;
65853;SDS011;52627;48.838;2.402;2024-03-07T11:54:55;18.20;;;11.90;;
65853;SDS011;52627;48.838;2.402;2024-03-07T11:57:32;18.40;;;11.80;;
65853;SDS011;52627;48.838;2.402;2024-03-07T12:00:02;20.10;;;12.70;;
65853;SDS011;52627;48.838;2.402;2024-03-07T12:02:39;20.90;;;13.40;;
65853;SDS011;52627;48.838;2.402;2024-03-07T12:05:08;19.30;;;13.30;;
65853;SDS011;52627;48.838;2.402;2024-03-07T12:07:36;20.50;;;13.20;;
65853;SDS011;52627;48.838;2.402;2024-03-07T12:10:06;19.30;;;12.70;;
65853;SDS011;52627;48.838;2.402;2024-03-07T12:12:34;23.10;;;13.40;;
65853;SDS011;52627;48.838;2.402;2024-03-07T12:15:08;18.90;;;12.10;;
65853;SDS011;52627;48.838;2.402;2024-03-07T12:17:48;20.80;;;12.70;;
65853;SDS011;52627;48.838;2.402;2024-03-07T12:20:17;21.30;;;14.40;;
65853;SDS011;52627;48.838;2.402;2024-03-07T12:23:02;20.40;;;13.20;;
65853;SDS011;52627;48.838;2.402;2024-03-07T12:25:31;18.40;;;12.40;;
65853;SDS011;52627;48.838;2.402;2024-03-07T12:28:08;19.30;;;13.10;;
65853;SDS011;52627;48.838;2.402;2024-03-07T12:33:13;23.80;;;14.40;;
65853;SDS011;52627;48.838;2.402;2024-03-07T12:35:41;20.50;;;13.40;;
65853;SDS011;52627;48.838;2.402;2024-03-07T12:38:10;21.20;;;14.40;;
65853;SDS011;52627;48.838;2.402;2024-03-07T12:40:38;22.10;;;14.60;;
65853;SDS011;52627;48.838;2.402;2024-03-07T12:43:21;21.00;;;13.10;;
65853;SDS011;52627;48.838;2.402;2024-03-07T12:45:53;20.60;;;13.40;;
65853;SDS011;52627;48.838;2.402;2024-03-07T12:48:21;24.20;;;13.30;;
65853;SDS011;52627;48.838;2.402;2024-03-07T12:50:50;20.40;;;12.80;;
65853;SDS011;52627;48.838;2.402;2024-03-07T12:53:22;19.10;;;12.00;;
65853;SDS011;52627;48.838;2.402;2024-03-07T12:55:52;22.80;;;13.10;;
65853;SDS011;52627;48.838;2.402;2024-03-07T12:58:20;19.10;;;12.10;;
65853;SDS011;52627;48.838;2.402;2024-03-07T13:00:53;18.20;;;12.00;;
65853;SDS011;52627;48.838;2.402;2024-03-07T13:03:24;19.20;;;11.70;;
65853;SDS011;52627;48.838;2.402;2024-03-07T13:05:58;21.20;;;12.90;;
65853;SDS011;52627;48.838;2.402;2024-03-07T13:08:30;18.00;;;12.10;;
65853;SDS011;52627;48.838;2.402;2024-03-07T13:10:58;19.20;;;12.30;;
65853;SDS011;52627;48.838;2.402;2024-03-07T13:13:28;18.80;;;12.10;;
65853;SDS011;52627;48.838;2.402;2024-03-07T13:15:56;19.80;;;13.10;;
65853;SDS011;52627;48.838;2.402;2024-03-07T13:18:23;19.70;;;12.00;;
65853;SDS011;52627;48.838;2.402;2024-03-07T13:20:52;17.90;;;11.10;;
65853;SDS011;52627;48.838;2.402;2024-03-07T13:23:20;16.50;;;11.20;;
65853;SDS011;52627;48.838;2.402;2024-03-07T13:25:48;18.10;;;11.10;;
65853;SDS011;52627;48.838;2.402;2024-03-07T13:28:17;18.50;;;12.20;;
65853;SDS011;52627;48.838;2.402;2024-03-07T13:30:45;18.30;;;12.30;;
65853;SDS011;52627;48.838;2.402;2024-03-07T13:33:17;18.50;;;12.40;;
65853;SDS011;52627;48.838;2.402;2024-03-07T13:35:45;20.90;;;11.50;;
65853;SDS011;52627;48.838;2.402;2024-03-07T13:38:13;17.20;;;12.00;;
65853;SDS011;52627;48.838;2.402;2024-03-07T13:40:43;18.30;;;11.30;;
65853;SDS011;52627;48.838;2.402;2024-03-07T13:43:10;18.30;;;11.10;;
65853;SDS011;52627;48.838;2.402;2024-03-07T13:45:38;17.20;;;11.00;;
65853;SDS011;52627;48.838;2.402;2024-03-07T13:48:11;15.00;;;10.20;;
65853;SDS011;52627;48.838;2.402;2024-03-07T13:50:44;17.50;;;11.20;;
65853;SDS011;52627;48.838;2.402;2024-03-07T13:53:26;16.00;;;10.50;;
65853;SDS011;52627;48.838;2.402;2024-03-07T13:59:09;18.80;;;11.60;;
65853;SDS011;52627;48.838;2.402;2024-03-07T14:02:04;19.30;;;11.90;;
65853;SDS011;52627;48.838;2.402;2024-03-07T14:24:34;21.30;;;13.00;;
65853;SDS011;52627;48.838;2.402;2024-03-07T14:27:38;18.50;;;11.90;;
65853;SDS011;52627;48.838;2.402;2024-03-07T14:30:51;19.50;;;11.90;;
65853;SDS011;52627;48.838;2.402;2024-03-07T14:33:29;19.80;;;12.00;;
65853;SDS011;52627;48.838;2.402;2024-03-07T14:36:04;19.40;;;11.90;;
65853;SDS011;52627;48.838;2.402;2024-03-07T14:38:55;18.70;;;11.30;;
65853;SDS011;52627;48.838;2.402;2024-03-07T14:44:22;20.90;;;13.20;;
65853;SDS011;52627;48.838;2.402;2024-03-07T14:46:54;19.10;;;11.30;;
65853;SDS011;52627;48.838;2.402;2024-03-07T14:49:24;18.90;;;11.50;;
65853;SDS011;52627;48.838;2.402;2024-03-07T14:51:52;20.50;;;12.60;;
65853;SDS011;52627;48.838;2.402;2024-03-07T14:54:27;19.50;;;11.90;;
65853;SDS011;52627;48.838;2.402;2024-03-07T14:56:55;18.30;;;11.30;;
65853;SDS011;52627;48.838;2.402;2024-03-07T14:59:23;19.50;;;11.00;;
65853;SDS011;52627;48.838;2.402;2024-03-07T15:01:51;16.90;;;10.40;;
65853;SDS011;52627;48.838;2.402;2024-03-07T15:04:20;16.20;;;10.50;;
65853;SDS011;52627;48.838;2.402;2024-03-07T15:06:48;16.90;;;10.20;;
65853;SDS011;52627;48.838;2.402;2024-03-07T15:09:16;21.20;;;12.00;;
65853;SDS011;52627;48.838;2.402;2024-03-07T15:11:44;17.90;;;10.80;;
65853;SDS011;52627;48.838;2.402;2024-03-07T15:14:13;17.90;;;11.10;;
65853;SDS011;52627;48.838;2.402;2024-03-07T15:16:44;23.50;;;12.40;;
65853;SDS011;52627;48.838;2.402;2024-03-07T15:19:13;20.10;;;11.70;;
65853;SDS011;52627;48.838;2.402;2024-03-07T15:21:41;20.80;;;12.80;;
65853;SDS011;52627;48.838;2.402;2024-03-07T15:24:09;21.90;;;13.40;;
65853;SDS011;52627;48.838;2.402;2024-03-07T15:26:38;23.00;;;13.20;;
65853;SDS011;52627;48.838;2.402;2024-03-07T15:29:06;23.10;;;13.50;;
65853;SDS011;52627;48.838;2.402;2024-03-07T15:31:34;22.30;;;13.30;;
65853;SDS011;52627;48.838;2.402;2024-03-07T15:34:01;22.10;;;13.50;;